sensor_id;sensor_type;location;lat;lon;timestamp;P1;P2;P0
29460;PMS7003;16428;47.836;35.106;2023-11-18T00:01:54;45.25;38.00;25.75
29460;PMS7003;16428;47.836;35.106;2023-11-18T00:04:21;39.75;37.00;25.50
29460;PMS7003;16428;47.836;35.106;2023-11-18T00:06:48;43.00;36.25;23.50
29460;PMS7003;16428;47.836;35.106;2023-11-18T00:09:16;38.00;35.00;25.00
29460;PMS7003;16428;47.836;35.106;2023-11-18T00:11:43;45.00;38.00;26.50
29460;PMS7003;16428;47.836;35.106;2023-11-18T00:14:10;54.00;45.00;32.25
29460;PMS7003;16428;47.836;35.106;2023-11-18T00:16:38;56.50;47.50;31.25
29460;PMS7003;16428;47.836;35.106;2023-11-18T00:19:05;47.50;38.00;26.00
29460;PMS7003;16428;47.836;35.106;2023-11-18T00:21:32;44.00;38.00;26.00
29460;PMS7003;16428;47.836;35.106;2023-11-18T00:23:59;41.25;34.50;23.00
29460;PMS7003;16428;47.836;35.106;2023-11-18T00:26:26;33.75;29.50;22.00
29460;PMS7003;16428;47.836;35.106;2023-11-18T00:28:54;32.25;30.50;21.25
29460;PMS7003;16428;47.836;35.106;2023-11-18T00:31:21;36.00;32.00;24.50
29460;PMS7003;16428;47.836;35.106;2023-11-18T00:33:48;37.25;31.50;21.50
29460;PMS7003;16428;47.836;35.106;2023-11-18T00:36:15;29.75;24.00;18.75
29460;PMS7003;16428;47.836;35.106;2023-11-18T00:38:42;29.00;25.75;19.00
29460;PMS7003;16428;47.836;35.106;2023-11-18T00:41:09;30.75;25.75;18.75
29460;PMS7003;16428;47.836;35.106;2023-11-18T00:43:36;25.75;24.50;19.75
29460;PMS7003;16428;47.836;35.106;2023-11-18T00:46:03;39.00;32.75;22.00
29460;PMS7003;16428;47.836;35.106;2023-11-18T00:48:31;30.25;27.00;20.50
29460;PMS7003;16428;47.836;35.106;2023-11-18T00:50:59;31.25;29.25;19.75
29460;PMS7003;16428;47.836;35.106;2023-11-18T00:53:26;30.50;29.25;21.50
29460;PMS7003;16428;47.836;35.106;2023-11-18T00:55:53;25.75;24.75;18.50
29460;PMS7003;16428;47.836;35.106;2023-11-18T00:58:20;33.75;30.50;22.00
29460;PMS7003;16428;47.836;35.106;2023-11-18T01:00:47;35.50;34.00;23.75
29460;PMS7003;16428;47.836;35.106;2023-11-18T01:03:14;33.25;28.75;21.00
29460;PMS7003;16428;47.836;35.106;2023-11-18T01:05:41;30.00;30.00;19.25
29460;PMS7003;16428;47.836;35.106;2023-11-18T01:08:09;38.75;34.75;24.25
29460;PMS7003;16428;47.836;35.106;2023-11-18T01:10:36;37.00;33.50;23.50
29460;PMS7003;16428;47.836;35.106;2023-11-18T01:13:05;31.25;28.75;21.50
29460;PMS7003;16428;47.836;35.106;2023-11-18T01:15:32;30.25;24.75;16.75
29460;PMS7003;16428;47.836;35.106;2023-11-18T01:17:59;36.75;29.00;22.50
29460;PMS7003;16428;47.836;35.106;2023-11-18T01:20:26;17.00;17.00;11.00
29460;PMS7003;16428;47.836;35.106;2023-11-18T01:22:53;35.25;28.25;18.25
29460;PMS7003;16428;47.836;35.106;2023-11-18T01:25:20;37.75;31.75;22.75
29460;PMS7003;16428;47.836;35.106;2023-11-18T01:27:47;27.00;26.50;21.50
29460;PMS7003;16428;47.836;35.106;2023-11-18T01:30:14;29.50;29.50;22.00
29460;PMS7003;16428;47.836;35.106;2023-11-18T01:32:42;24.00;23.25;16.75
29460;PMS7003;16428;47.836;35.106;2023-11-18T01:35:09;29.75;28.75;22.00
29460;PMS7003;16428;47.836;35.106;2023-11-18T01:37:38;35.75;29.75;19.25
29460;PMS7003;16428;47.836;35.106;2023-11-18T01:40:05;23.75;20.75;15.00
29460;PMS7003;16428;47.836;35.106;2023-11-18T01:42:34;17.50;16.50;14.00
29460;PMS7003;16428;47.836;35.106;2023-11-18T01:45:01;24.75;23.25;17.50
29460;PMS7003;16428;47.836;35.106;2023-11-18T01:47:32;16.50;16.50;11.50
29460;PMS7003;16428;47.836;35.106;2023-11-18T01:50:01;18.50;17.50;15.00
29460;PMS7003;16428;47.836;35.106;2023-11-18T01:52:29;16.75;16.25;12.25
29460;PMS7003;16428;47.836;35.106;2023-11-18T01:54:57;13.00;12.25;10.25
29460;PMS7003;16428;47.836;35.106;2023-11-18T01:57:26;12.50;12.50;8.25
29460;PMS7003;16428;47.836;35.106;2023-11-18T01:59:53;13.25;12.50;10.25
29460;PMS7003;16428;47.836;35.106;2023-11-18T02:02:21;17.75;17.75;13.75
29460;PMS7003;16428;47.836;35.106;2023-11-18T02:04:48;17.50;16.50;11.25
29460;PMS7003;16428;47.836;35.106;2023-11-18T02:07:16;17.00;17.00;12.00
29460;PMS7003;16428;47.836;35.106;2023-11-18T02:09:44;19.75;17.50;14.25
29460;PMS7003;16428;47.836;35.106;2023-11-18T02:15:06;17.25;16.75;11.25
29460;PMS7003;16428;47.836;35.106;2023-11-18T02:17:37;21.75;21.75;15.75
29460;PMS7003;16428;47.836;35.106;2023-11-18T02:20:06;21.75;18.25;14.00
29460;PMS7003;16428;47.836;35.106;2023-11-18T02:22:41;23.50;18.50;15.00
29460;PMS7003;16428;47.836;35.106;2023-11-18T02:25:09;21.75;15.75;13.25
29460;PMS7003;16428;47.836;35.106;2023-11-18T02:27:37;26.25;22.75;16.50
29460;PMS7003;16428;47.836;35.106;2023-11-18T02:30:05;14.25;14.25;11.25
29460;PMS7003;16428;47.836;35.106;2023-11-18T02:32:40;21.25;15.50;12.00
29460;PMS7003;16428;47.836;35.106;2023-11-18T02:35:15;19.50;15.50;11.50
29460;PMS7003;16428;47.836;35.106;2023-11-18T02:37:49;19.50;14.00;11.00
29460;PMS7003;16428;47.836;35.106;2023-11-18T02:40:19;16.00;12.75;10.25
29460;PMS7003;16428;47.836;35.106;2023-11-18T02:42:57;15.00;15.00;11.00
29460;PMS7003;16428;47.836;35.106;2023-11-18T02:45:27;11.75;11.75;9.00
29460;PMS7003;16428;47.836;35.106;2023-11-18T02:47:55;12.50;11.75;10.25
29460;PMS7003;16428;47.836;35.106;2023-11-18T02:50:25;16.75;15.00;10.00
29460;PMS7003;16428;47.836;35.106;2023-11-18T02:52:54;11.50;11.50;9.25
29460;PMS7003;16428;47.836;35.106;2023-11-18T02:55:21;14.50;11.50;9.25
29460;PMS7003;16428;47.836;35.106;2023-11-18T02:57:49;14.50;13.00;9.50
29460;PMS7003;16428;47.836;35.106;2023-11-18T03:00:18;16.00;14.50;10.00
29460;PMS7003;16428;47.836;35.106;2023-11-18T03:02:49;10.50;9.50;8.50
29460;PMS7003;16428;47.836;35.106;2023-11-18T03:05:19;15.25;13.50;10.00
29460;PMS7003;16428;47.836;35.106;2023-11-18T03:07:47;15.00;15.00;11.00
29460;PMS7003;16428;47.836;35.106;2023-11-18T03:10:20;17.75;13.75;10.75
29460;PMS7003;16428;47.836;35.106;2023-11-18T03:12:49;16.50;14.50;10.25
29460;PMS7003;16428;47.836;35.106;2023-11-18T03:15:20;15.75;10.25;9.00
29460;PMS7003;16428;47.836;35.106;2023-11-18T03:17:49;17.25;17.25;13.50
29460;PMS7003;16428;47.836;35.106;2023-11-18T03:20:18;15.75;12.00;10.50
29460;PMS7003;16428;47.836;35.106;2023-11-18T03:22:46;16.00;12.25;10.75
29460;PMS7003;16428;47.836;35.106;2023-11-18T03:25:14;18.50;16.75;14.00
29460;PMS7003;16428;47.836;35.106;2023-11-18T03:27:42;16.75;16.75;13.00
29460;PMS7003;16428;47.836;35.106;2023-11-18T03:30:11;23.50;18.75;13.75
29460;PMS7003;16428;47.836;35.106;2023-11-18T03:32:38;17.50;17.50;12.25
29460;PMS7003;16428;47.836;35.106;2023-11-18T03:35:07;19.50;19.50;15.50
29460;PMS7003;16428;47.836;35.106;2023-11-18T03:37:36;18.25;16.00;11.25
29460;PMS7003;16428;47.836;35.106;2023-11-18T03:40:11;18.50;17.50;11.75
29460;PMS7003;16428;47.836;35.106;2023-11-18T03:42:41;18.25;15.00;10.75
29460;PMS7003;16428;47.836;35.106;2023-11-18T03:45:09;17.75;15.25;11.25
29460;PMS7003;16428;47.836;35.106;2023-11-18T03:47:37;13.00;12.75;8.50
29460;PMS7003;16428;47.836;35.106;2023-11-18T03:50:04;17.00;13.00;11.00
29460;PMS7003;16428;47.836;35.106;2023-11-18T03:52:32;12.00;10.00;9.00
29460;PMS7003;16428;47.836;35.106;2023-11-18T03:55:02;15.25;12.00;10.25
29460;PMS7003;16428;47.836;35.106;2023-11-18T03:57:31;19.00;12.00;10.00
29460;PMS7003;16428;47.836;35.106;2023-11-18T03:59:58;10.75;9.50;7.25
29460;PMS7003;16428;47.836;35.106;2023-11-18T04:02:25;13.00;11.25;10.50
29460;PMS7003;16428;47.836;35.106;2023-11-18T04:04:52;19.00;16.75;11.25
29460;PMS7003;16428;47.836;35.106;2023-11-18T04:07:19;16.50;12.75;9.00
29460;PMS7003;16428;47.836;35.106;2023-11-18T04:09:48;17.25;16.50;13.50
29460;PMS7003;16428;47.836;35.106;2023-11-18T04:12:15;8.50;8.50;5.50
29460;PMS7003;16428;47.836;35.106;2023-11-18T04:14:42;22.50;15.75;12.50
29460;PMS7003;16428;47.836;35.106;2023-11-18T04:17:09;15.25;14.50;11.50
29460;PMS7003;16428;47.836;35.106;2023-11-18T04:19:37;19.75;17.75;15.00
29460;PMS7003;16428;47.836;35.106;2023-11-18T04:22:05;16.00;13.00;12.75
29460;PMS7003;16428;47.836;35.106;2023-11-18T04:24:32;14.25;14.00;11.25
29460;PMS7003;16428;47.836;35.106;2023-11-18T04:27:01;17.75;16.00;12.25
29460;PMS7003;16428;47.836;35.106;2023-11-18T04:29:29;14.75;14.75;10.75
29460;PMS7003;16428;47.836;35.106;2023-11-18T04:31:56;17.75;15.00;12.00
29460;PMS7003;16428;47.836;35.106;2023-11-18T04:34:24;12.50;11.50;10.50
29460;PMS7003;16428;47.836;35.106;2023-11-18T04:36:51;17.00;16.75;12.00
29460;PMS7003;16428;47.836;35.106;2023-11-18T04:39:18;15.75;15.00;9.75
29460;PMS7003;16428;47.836;35.106;2023-11-18T04:41:47;19.25;15.25;12.75
29460;PMS7003;16428;47.836;35.106;2023-11-18T04:44:14;19.50;16.75;13.00
29460;PMS7003;16428;47.836;35.106;2023-11-18T04:46:43;16.00;14.00;10.75
29460;PMS7003;16428;47.836;35.106;2023-11-18T04:49:11;12.75;12.25;10.75
29460;PMS7003;16428;47.836;35.106;2023-11-18T04:51:39;15.50;14.00;11.00
29460;PMS7003;16428;47.836;35.106;2023-11-18T04:54:06;20.25;15.75;11.50
29460;PMS7003;16428;47.836;35.106;2023-11-18T04:56:34;11.50;11.50;9.00
29460;PMS7003;16428;47.836;35.106;2023-11-18T04:59:02;17.25;14.00;11.00
29460;PMS7003;16428;47.836;35.106;2023-11-18T05:01:32;16.00;15.00;11.50
29460;PMS7003;16428;47.836;35.106;2023-11-18T05:04:00;16.25;16.25;13.00
29460;PMS7003;16428;47.836;35.106;2023-11-18T05:06:27;15.00;13.00;10.00
29460;PMS7003;16428;47.836;35.106;2023-11-18T05:08:54;16.25;13.75;11.50
29460;PMS7003;16428;47.836;35.106;2023-11-18T05:11:22;11.25;11.25;9.50
29460;PMS7003;16428;47.836;35.106;2023-11-18T05:13:49;11.75;11.75;8.75
29460;PMS7003;16428;47.836;35.106;2023-11-18T05:16:16;15.25;13.25;11.25
29460;PMS7003;16428;47.836;35.106;2023-11-18T05:18:44;13.25;13.25;11.00
29460;PMS7003;16428;47.836;35.106;2023-11-18T05:21:11;15.00;13.50;10.50
29460;PMS7003;16428;47.836;35.106;2023-11-18T05:23:38;14.25;12.75;11.00
29460;PMS7003;16428;47.836;35.106;2023-11-18T05:26:05;15.25;12.25;9.25
29460;PMS7003;16428;47.836;35.106;2023-11-18T05:28:33;12.00;12.00;9.50
29460;PMS7003;16428;47.836;35.106;2023-11-18T05:31:01;17.25;13.25;10.00
29460;PMS7003;16428;47.836;35.106;2023-11-18T05:33:29;14.75;14.75;10.75
29460;PMS7003;16428;47.836;35.106;2023-11-18T05:35:57;10.50;10.50;7.00
29460;PMS7003;16428;47.836;35.106;2023-11-18T05:38:24;15.00;12.50;10.50
29460;PMS7003;16428;47.836;35.106;2023-11-18T05:40:54;19.50;14.00;10.25
29460;PMS7003;16428;47.836;35.106;2023-11-18T05:43:33;10.75;5.25;5.25
29460;PMS7003;16428;47.836;35.106;2023-11-18T05:46:04;14.50;10.75;9.00
29460;PMS7003;16428;47.836;35.106;2023-11-18T05:49:05;17.00;17.00;13.00
29460;PMS7003;16428;47.836;35.106;2023-11-18T05:51:35;17.50;15.75;10.25
29460;PMS7003;16428;47.836;35.106;2023-11-18T05:54:03;14.25;13.00;10.25
29460;PMS7003;16428;47.836;35.106;2023-11-18T05:56:30;23.25;16.75;12.00
29460;PMS7003;16428;47.836;35.106;2023-11-18T05:58:58;18.00;14.75;11.50
29460;PMS7003;16428;47.836;35.106;2023-11-18T06:01:25;18.25;16.50;13.25
29460;PMS7003;16428;47.836;35.106;2023-11-18T06:03:54;15.00;15.00;11.50
29460;PMS7003;16428;47.836;35.106;2023-11-18T06:06:23;19.00;17.75;11.50
29460;PMS7003;16428;47.836;35.106;2023-11-18T06:08:50;17.75;16.75;11.50
29460;PMS7003;16428;47.836;35.106;2023-11-18T06:11:19;18.75;16.25;13.75
29460;PMS7003;16428;47.836;35.106;2023-11-18T06:13:49;17.75;15.00;11.00
29460;PMS7003;16428;47.836;35.106;2023-11-18T06:16:18;22.00;20.00;13.00
29460;PMS7003;16428;47.836;35.106;2023-11-18T06:18:52;14.25;13.50;11.00
29460;PMS7003;16428;47.836;35.106;2023-11-18T06:21:20;18.25;17.25;12.75
29460;PMS7003;16428;47.836;35.106;2023-11-18T06:23:53;27.25;17.75;15.75
29460;PMS7003;16428;47.836;35.106;2023-11-18T06:26:24;20.75;17.75;14.50
29460;PMS7003;16428;47.836;35.106;2023-11-18T06:28:54;17.75;16.50;13.00
29460;PMS7003;16428;47.836;35.106;2023-11-18T06:31:22;24.25;22.25;15.25
29460;PMS7003;16428;47.836;35.106;2023-11-18T06:33:52;19.00;17.25;13.75
29460;PMS7003;16428;47.836;35.106;2023-11-18T06:36:20;28.25;21.75;14.00
29460;PMS7003;16428;47.836;35.106;2023-11-18T06:38:49;16.50;15.00;11.00
29460;PMS7003;16428;47.836;35.106;2023-11-18T06:41:19;20.25;19.25;13.75
29460;PMS7003;16428;47.836;35.106;2023-11-18T06:43:50;27.25;19.75;15.50
29460;PMS7003;16428;47.836;35.106;2023-11-18T06:46:30;31.25;28.50;20.25
29460;PMS7003;16428;47.836;35.106;2023-11-18T06:49:06;22.00;20.75;15.50
29460;PMS7003;16428;47.836;35.106;2023-11-18T06:51:34;24.50;19.50;15.50
29460;PMS7003;16428;47.836;35.106;2023-11-18T06:54:03;18.75;17.75;13.50
29460;PMS7003;16428;47.836;35.106;2023-11-18T06:56:37;18.75;15.50;11.75
29460;PMS7003;16428;47.836;35.106;2023-11-18T06:59:06;18.25;15.75;13.75
29460;PMS7003;16428;47.836;35.106;2023-11-18T07:01:34;18.25;17.25;12.25
29460;PMS7003;16428;47.836;35.106;2023-11-18T07:04:03;18.75;18.75;15.25
29460;PMS7003;16428;47.836;35.106;2023-11-18T07:06:30;14.50;12.75;10.00
29460;PMS7003;16428;47.836;35.106;2023-11-18T07:08:58;19.00;16.25;13.25
29460;PMS7003;16428;47.836;35.106;2023-11-18T07:11:27;20.00;16.50;11.00
29460;PMS7003;16428;47.836;35.106;2023-11-18T07:13:54;18.00;18.00;13.50
29460;PMS7003;16428;47.836;35.106;2023-11-18T07:16:24;15.00;13.50;11.75
29460;PMS7003;16428;47.836;35.106;2023-11-18T07:18:52;15.00;12.75;9.25
29460;PMS7003;16428;47.836;35.106;2023-11-18T07:21:19;18.25;17.00;12.00
29460;PMS7003;16428;47.836;35.106;2023-11-18T07:23:47;17.00;15.75;10.25
29460;PMS7003;16428;47.836;35.106;2023-11-18T07:26:14;14.00;14.00;10.50
29460;PMS7003;16428;47.836;35.106;2023-11-18T07:28:41;16.00;14.00;11.00
29460;PMS7003;16428;47.836;35.106;2023-11-18T07:31:11;16.50;15.25;10.50
29460;PMS7003;16428;47.836;35.106;2023-11-18T07:33:38;16.75;16.75;12.00
29460;PMS7003;16428;47.836;35.106;2023-11-18T07:36:10;25.00;22.00;16.50
29460;PMS7003;16428;47.836;35.106;2023-11-18T07:38:38;25.25;19.75;16.00
29460;PMS7003;16428;47.836;35.106;2023-11-18T07:41:06;22.75;19.50;16.00
29460;PMS7003;16428;47.836;35.106;2023-11-18T07:43:35;21.00;15.50;11.75
29460;PMS7003;16428;47.836;35.106;2023-11-18T07:46:03;17.50;16.75;14.50
29460;PMS7003;16428;47.836;35.106;2023-11-18T07:48:35;18.50;16.75;15.00
29460;PMS7003;16428;47.836;35.106;2023-11-18T07:51:02;20.75;20.75;15.75
29460;PMS7003;16428;47.836;35.106;2023-11-18T07:53:30;18.25;18.25;15.25
29460;PMS7003;16428;47.836;35.106;2023-11-18T07:55:57;11.50;8.00;4.75
29460;PMS7003;16428;47.836;35.106;2023-11-18T07:58:24;24.25;19.00;15.00
29460;PMS7003;16428;47.836;35.106;2023-11-18T08:00:53;15.75;15.75;11.50
29460;PMS7003;16428;47.836;35.106;2023-11-18T08:03:21;19.25;15.25;12.00
29460;PMS7003;16428;47.836;35.106;2023-11-18T08:05:49;13.50;13.50;11.25
29460;PMS7003;16428;47.836;35.106;2023-11-18T08:08:16;19.75;13.00;10.25
29460;PMS7003;16428;47.836;35.106;2023-11-18T08:10:43;12.25;11.25;8.25
29460;PMS7003;16428;47.836;35.106;2023-11-18T08:13:11;13.75;10.50;8.00
29460;PMS7003;16428;47.836;35.106;2023-11-18T08:15:40;5.00;4.00;3.00
29460;PMS7003;16428;47.836;35.106;2023-11-18T08:18:08;16.25;13.50;10.00
29460;PMS7003;16428;47.836;35.106;2023-11-18T08:20:39;19.75;16.00;13.50
29460;PMS7003;16428;47.836;35.106;2023-11-18T08:23:06;21.50;15.50;9.75
29460;PMS7003;16428;47.836;35.106;2023-11-18T08:25:34;16.75;15.75;13.00
29460;PMS7003;16428;47.836;35.106;2023-11-18T08:28:03;19.00;12.00;10.00
29460;PMS7003;16428;47.836;35.106;2023-11-18T08:30:31;15.00;15.00;9.50
29460;PMS7003;16428;47.836;35.106;2023-11-18T08:33:01;16.75;14.75;11.00
29460;PMS7003;16428;47.836;35.106;2023-11-18T08:35:32;26.00;22.00;15.50
29460;PMS7003;16428;47.836;35.106;2023-11-18T08:38:00;11.00;11.00;8.00
29460;PMS7003;16428;47.836;35.106;2023-11-18T08:40:28;15.75;15.75;13.75
29460;PMS7003;16428;47.836;35.106;2023-11-18T08:42:55;15.50;11.75;9.75
29460;PMS7003;16428;47.836;35.106;2023-11-18T08:45:24;18.50;17.25;14.75
29460;PMS7003;16428;47.836;35.106;2023-11-18T08:48:03;19.00;16.75;12.25
29460;PMS7003;16428;47.836;35.106;2023-11-18T08:50:36;17.25;13.75;10.25
29460;PMS7003;16428;47.836;35.106;2023-11-18T08:53:08;14.25;14.25;10.25
29460;PMS7003;16428;47.836;35.106;2023-11-18T08:55:37;17.00;15.75;13.25
29460;PMS7003;16428;47.836;35.106;2023-11-18T08:58:14;12.25;11.25;9.00
29460;PMS7003;16428;47.836;35.106;2023-11-18T09:00:58;17.50;16.00;11.75
29460;PMS7003;16428;47.836;35.106;2023-11-18T09:03:43;22.00;15.75;12.25
29460;PMS7003;16428;47.836;35.106;2023-11-18T09:06:15;23.50;18.00;14.50
29460;PMS7003;16428;47.836;35.106;2023-11-18T09:08:46;11.00;10.00;6.50
29460;PMS7003;16428;47.836;35.106;2023-11-18T09:11:21;22.50;15.75;11.50
29460;PMS7003;16428;47.836;35.106;2023-11-18T09:13:50;16.25;16.25;11.25
29460;PMS7003;16428;47.836;35.106;2023-11-18T09:16:21;19.50;17.75;13.00
29460;PMS7003;16428;47.836;35.106;2023-11-18T09:18:56;20.75;16.50;12.00
29460;PMS7003;16428;47.836;35.106;2023-11-18T09:21:26;15.25;15.25;11.50
29460;PMS7003;16428;47.836;35.106;2023-11-18T09:23:56;17.00;16.25;12.25
29460;PMS7003;16428;47.836;35.106;2023-11-18T09:26:24;18.00;13.25;11.00
29460;PMS7003;16428;47.836;35.106;2023-11-18T09:28:53;20.00;19.00;14.00
29460;PMS7003;16428;47.836;35.106;2023-11-18T09:31:20;22.25;16.25;13.00
29460;PMS7003;16428;47.836;35.106;2023-11-18T09:33:48;17.75;14.75;11.75
29460;PMS7003;16428;47.836;35.106;2023-11-18T09:36:24;19.25;19.00;14.50
29460;PMS7003;16428;47.836;35.106;2023-11-18T09:38:55;26.50;23.25;16.75
29460;PMS7003;16428;47.836;35.106;2023-11-18T09:41:23;16.75;14.75;11.00
29460;PMS7003;16428;47.836;35.106;2023-11-18T09:43:54;20.50;17.25;12.75
29460;PMS7003;16428;47.836;35.106;2023-11-18T09:46:25;9.75;9.75;3.00
29460;PMS7003;16428;47.836;35.106;2023-11-18T09:51:44;19.75;15.00;10.75
29460;PMS7003;16428;47.836;35.106;2023-11-18T09:54:29;19.00;15.25;11.50
29460;PMS7003;16428;47.836;35.106;2023-11-18T10:02:41;16.00;13.50;11.00
29460;PMS7003;16428;47.836;35.106;2023-11-18T10:05:11;18.00;17.25;11.00
29460;PMS7003;16428;47.836;35.106;2023-11-18T10:07:43;14.25;13.25;11.00
29460;PMS7003;16428;47.836;35.106;2023-11-18T10:10:14;21.00;16.75;12.25
29460;PMS7003;16428;47.836;35.106;2023-11-18T10:15:13;12.75;12.75;11.50
29460;PMS7003;16428;47.836;35.106;2023-11-18T10:17:41;16.25;13.50;9.75
29460;PMS7003;16428;47.836;35.106;2023-11-18T10:23:06;16.50;16.25;12.00
29460;PMS7003;16428;47.836;35.106;2023-11-18T10:28:27;20.25;17.75;16.00
29460;PMS7003;16428;47.836;35.106;2023-11-18T10:30:59;23.25;22.00;16.00
29460;PMS7003;16428;47.836;35.106;2023-11-18T10:33:34;16.25;15.25;11.50
29460;PMS7003;16428;47.836;35.106;2023-11-18T10:36:05;26.50;22.50;15.50
29460;PMS7003;16428;47.836;35.106;2023-11-18T10:38:39;25.75;19.50;14.00
29460;PMS7003;16428;47.836;35.106;2023-11-18T10:41:19;22.75;18.50;15.00
29460;PMS7003;16428;47.836;35.106;2023-11-18T10:43:47;20.25;18.75;16.00
29460;PMS7003;16428;47.836;35.106;2023-11-18T10:46:17;18.75;18.75;16.00
29460;PMS7003;16428;47.836;35.106;2023-11-18T10:48:50;18.25;18.25;16.00
29460;PMS7003;16428;47.836;35.106;2023-11-18T10:51:18;22.00;17.75;15.25
29460;PMS7003;16428;47.836;35.106;2023-11-18T10:53:47;18.25;16.75;12.25
29460;PMS7003;16428;47.836;35.106;2023-11-18T10:56:31;20.50;16.75;12.50
29460;PMS7003;16428;47.836;35.106;2023-11-18T10:59:07;22.50;18.00;15.00
29460;PMS7003;16428;47.836;35.106;2023-11-18T11:01:38;24.00;19.50;16.00
29460;PMS7003;16428;47.836;35.106;2023-11-18T11:04:10;23.00;22.50;16.75
29460;PMS7003;16428;47.836;35.106;2023-11-18T11:06:45;25.50;19.25;16.50
29460;PMS7003;16428;47.836;35.106;2023-11-18T11:09:19;26.25;22.25;16.75
29460;PMS7003;16428;47.836;35.106;2023-11-18T11:11:55;21.25;19.50;12.25
29460;PMS7003;16428;47.836;35.106;2023-11-18T11:14:35;17.25;17.25;14.50
29460;PMS7003;16428;47.836;35.106;2023-11-18T11:17:11;20.50;19.50;15.25
29460;PMS7003;16428;47.836;35.106;2023-11-18T11:19:59;25.00;24.25;18.50
29460;PMS7003;16428;47.836;35.106;2023-11-18T11:22:44;28.75;23.75;16.25
29460;PMS7003;16428;47.836;35.106;2023-11-18T11:25:29;24.00;20.50;16.25
29460;PMS7003;16428;47.836;35.106;2023-11-18T11:28:08;28.00;20.25;15.25
29460;PMS7003;16428;47.836;35.106;2023-11-18T11:31:03;28.50;23.50;18.00
29460;PMS7003;16428;47.836;35.106;2023-11-18T11:33:43;27.75;24.00;18.25
29460;PMS7003;16428;47.836;35.106;2023-11-18T11:36:20;24.00;23.00;16.75
29460;PMS7003;16428;47.836;35.106;2023-11-18T11:38:54;30.25;24.25;19.25
29460;PMS7003;16428;47.836;35.106;2023-11-18T11:41:23;38.25;35.25;26.00
29460;PMS7003;16428;47.836;35.106;2023-11-18T11:43:54;29.50;24.50;18.25
29460;PMS7003;16428;47.836;35.106;2023-11-18T11:46:26;28.25;25.00;21.75
29460;PMS7003;16428;47.836;35.106;2023-11-18T11:49:01;32.25;29.75;21.50
29460;PMS7003;16428;47.836;35.106;2023-11-18T11:51:56;30.25;25.75;17.50
29460;PMS7003;16428;47.836;35.106;2023-11-18T11:54:34;24.25;24.25;16.50
29460;PMS7003;16428;47.836;35.106;2023-11-18T11:57:06;28.50;22.75;17.75
29460;PMS7003;16428;47.836;35.106;2023-11-18T12:02:22;26.75;23.00;16.75
29460;PMS7003;16428;47.836;35.106;2023-11-18T12:04:53;29.25;29.25;19.00
29460;PMS7003;16428;47.836;35.106;2023-11-18T12:07:23;32.25;28.75;18.25
29460;PMS7003;16428;47.836;35.106;2023-11-18T12:09:57;32.50;29.50;18.75
29460;PMS7003;16428;47.836;35.106;2023-11-18T12:12:27;29.25;23.75;17.50
29460;PMS7003;16428;47.836;35.106;2023-11-18T12:14:59;26.00;23.00;17.75
29460;PMS7003;16428;47.836;35.106;2023-11-18T12:20:41;26.25;24.25;17.25
29460;PMS7003;16428;47.836;35.106;2023-11-18T12:23:14;21.50;18.75;15.00
29460;PMS7003;16428;47.836;35.106;2023-11-18T12:25:42;24.75;23.00;17.00
29460;PMS7003;16428;47.836;35.106;2023-11-18T12:28:16;25.50;21.75;14.50
29460;PMS7003;16428;47.836;35.106;2023-11-18T12:30:48;32.00;22.00;16.25
29460;PMS7003;16428;47.836;35.106;2023-11-18T12:33:19;24.50;20.75;15.50
29460;PMS7003;16428;47.836;35.106;2023-11-18T12:46:52;23.50;23.50;18.50
29460;PMS7003;16428;47.836;35.106;2023-11-18T12:49:22;23.25;22.00;17.50
29460;PMS7003;16428;47.836;35.106;2023-11-18T12:51:52;32.25;29.25;22.25
29460;PMS7003;16428;47.836;35.106;2023-11-18T12:54:27;32.25;27.75;19.50
29460;PMS7003;16428;47.836;35.106;2023-11-18T12:56:55;17.75;17.25;15.00
29460;PMS7003;16428;47.836;35.106;2023-11-18T12:59:23;26.00;25.50;19.25
29460;PMS7003;16428;47.836;35.106;2023-11-18T13:01:52;29.00;25.25;19.75
29460;PMS7003;16428;47.836;35.106;2023-11-18T13:04:24;29.25;24.25;18.75
29460;PMS7003;16428;47.836;35.106;2023-11-18T13:06:54;33.50;30.25;23.00
29460;PMS7003;16428;47.836;35.106;2023-11-18T13:09:22;24.75;24.75;19.25
29460;PMS7003;16428;47.836;35.106;2023-11-18T13:11:53;23.50;21.00;17.00
29460;PMS7003;16428;47.836;35.106;2023-11-18T13:14:30;36.25;32.25;23.00
29460;PMS7003;16428;47.836;35.106;2023-11-18T13:17:04;34.75;31.75;23.00
29460;PMS7003;16428;47.836;35.106;2023-11-18T13:19:35;33.75;28.75;20.50
29460;PMS7003;16428;47.836;35.106;2023-11-18T13:22:03;33.00;29.00;21.75
29460;PMS7003;16428;47.836;35.106;2023-11-18T13:24:39;25.75;25.75;18.50
29460;PMS7003;16428;47.836;35.106;2023-11-18T13:27:08;30.00;28.75;21.75
29460;PMS7003;16428;47.836;35.106;2023-11-18T13:29:38;28.75;25.25;20.00
29460;PMS7003;16428;47.836;35.106;2023-11-18T13:32:12;26.00;24.00;17.00
29460;PMS7003;16428;47.836;35.106;2023-11-18T13:34:39;27.50;26.00;18.50
29460;PMS7003;16428;47.836;35.106;2023-11-18T13:37:09;30.00;23.50;18.50
29460;PMS7003;16428;47.836;35.106;2023-11-18T13:39:44;29.00;24.25;17.25
29460;PMS7003;16428;47.836;35.106;2023-11-18T13:42:20;12.50;12.50;12.50
29460;PMS7003;16428;47.836;35.106;2023-11-18T13:45:04;26.00;18.75;16.50
29460;PMS7003;16428;47.836;35.106;2023-11-18T13:47:38;18.00;16.50;13.25
29460;PMS7003;16428;47.836;35.106;2023-11-18T13:50:07;25.25;23.25;17.25
29460;PMS7003;16428;47.836;35.106;2023-11-18T13:52:36;24.00;23.00;15.25
29460;PMS7003;16428;47.836;35.106;2023-11-18T13:55:06;26.00;22.75;18.75
29460;PMS7003;16428;47.836;35.106;2023-11-18T13:57:33;32.75;26.25;17.00
29460;PMS7003;16428;47.836;35.106;2023-11-18T14:00:01;24.50;23.50;17.75
29460;PMS7003;16428;47.836;35.106;2023-11-18T14:02:33;21.75;19.25;12.00
29460;PMS7003;16428;47.836;35.106;2023-11-18T14:05:03;28.50;23.75;17.50
29460;PMS7003;16428;47.836;35.106;2023-11-18T14:07:37;31.00;24.00;17.25
29460;PMS7003;16428;47.836;35.106;2023-11-18T14:10:05;25.25;22.25;17.25
29460;PMS7003;16428;47.836;35.106;2023-11-18T14:12:39;33.00;23.25;17.75
29460;PMS7003;16428;47.836;35.106;2023-11-18T14:15:07;19.00;15.50;12.00
29460;PMS7003;16428;47.836;35.106;2023-11-18T14:17:36;23.50;20.75;16.00
29460;PMS7003;16428;47.836;35.106;2023-11-18T14:20:04;29.50;28.50;19.25
29460;PMS7003;16428;47.836;35.106;2023-11-18T14:22:31;23.00;20.00;15.00
29460;PMS7003;16428;47.836;35.106;2023-11-18T14:24:59;20.00;19.75;17.50
29460;PMS7003;16428;47.836;35.106;2023-11-18T14:27:26;21.75;19.00;14.75
29460;PMS7003;16428;47.836;35.106;2023-11-18T14:29:54;23.25;22.50;17.75